This is the latest recevied weather packets stored in our database for station/object OK1PMP-6. If no packets are shown the sender has not sent any weather packets the latest 10 day(s).
| Time | Temp. | Humidity | Pressure | Rain* | Wind** | Luminosity | Snow |
|---|---|---|---|---|---|---|---|
| 1777761215 | 7.78° C | 65% | 1021.7 hPa | 0 mm | - | 0 W/m² | - |
| 1777760310 | 7.78° C | 64% | 1021.9 hPa | 0 mm | - | 0 W/m² | - |
| 1777759414 | 7.78° C | 66% | 1021.8 hPa | 0 mm | - | 0 W/m² | - |
| 1777755777 | 8.89° C | 61% | 1021.8 hPa | 0 mm | - | 0 W/m² | - |
| 1777754881 | 8.89° C | 65% | 1022 hPa | 0 mm | - | 0 W/m² | - |
| 1777753072 | 10° C | 56% | 1022 hPa | 0 mm | - | 0 W/m² | - |
| 1777749467 | 12.78° C | 46% | 1021.9 hPa | 0 mm | - | 0 W/m² | - |
| 1777745865 | 17.78° C | 34% | 1021.8 hPa | 0 mm | - | 3 W/m² | - |
| 1777744070 | 21.67° C | 28% | 1022 hPa | 0 mm | - | 15 W/m² | - |
| 1777738646 | 25.56° C | 24% | 1022.5 hPa | 0 mm | - | 40 W/m² | - |
| 1777737745 | 26.11° C | 23% | 1022.9 hPa | 0 mm | - | 39 W/m² | - |
| 1777735938 | 26.67° C | 23% | 1023.2 hPa | 0 mm | - | 72 W/m² | - |
| 1777735036 | 26.67° C | 22% | 1023.2 hPa | 0 mm | - | 51 W/m² | - |
| 1777734114 | 27.22° C | 21% | 1023.5 hPa | 0 mm | - | 70 W/m² | - |
| 1777733209 | 27.22° C | 20% | 1023.8 hPa | 0 mm | - | 142 W/m² | - |
| 1777732303 | 26.67° C | 22% | 1023.8 hPa | 0 mm | - | 298 W/m² | - |
| 1777731395 | 26.67° C | 21% | 1023.9 hPa | 0 mm | - | 128 W/m² | - |
| 1777730491 | 26.67° C | 23% | 1024.3 hPa | 0 mm | - | 444 W/m² | - |
| 1777729589 | 26.67° C | 24% | 1024.3 hPa | 0 mm | - | 483 W/m² | - |
| 1777728681 | 26.67° C | 24% | 1024.6 hPa | 0 mm | - | 517 W/m² | - |
| 1777727776 | 26.11° C | 24% | 1024.5 hPa | 0 mm | - | 549 W/m² | - |
| 1777725067 | 25.56° C | 26% | 1025.5 hPa | 0 mm | - | 631 W/m² | - |
| 1777724167 | 25° C | 25% | 1025.7 hPa | 0 mm | - | 653 W/m² | - |
| 1777721463 | 23.33° C | 29% | 1026.1 hPa | 0 mm | - | 575 W/m² | - |
| 1777720560 | 23.33° C | 29% | 1026.7 hPa | 0 mm | - | 714 W/m² | - |
* Rain latest hour (hover to see other rain measurements)
** Current wind speed in m/s (hover to see current wind gust speed)